Flight Track Log - Related Links

Times and Time Zones

All times are in EDT time to prevent confusion due to time zone crossing. See the EJA898 flight status page for this flight to view local times or setup timezone preferences in your user account.

Time Position Orientation Groundspeed Altitude Reporting Facility
EDT Latitude Longitude Course Direction KTS MPH feet Rate Location/Type
Mon 09:47:41 AM 30.5108 -81.6364 69° East 194 223 3,200  Level Jacksonville Center
Mon 09:48:42 AM 30.5756 -81.6258 North 247 284 7,300 3,805 Climbing Jacksonville Center
Mon 09:49:44 AM 30.6508 -81.6369 353° North 293 337 11,000 3,098 Climbing Jacksonville Center
Mon 09:50:44 AM 30.7406 -81.6453 355° North 304 350 13,600 2,850 Climbing Jacksonville Center
Mon 09:51:44 AM 30.8408 -81.6369 North 328 377 16,700 3,350 Climbing Jacksonville Center
Mon 09:52:44 AM 30.9347 -81.6233 North 344 396 20,300 2,850 Climbing Jacksonville Center
Mon 09:53:44 AM 31.0325 -81.6075 North 344 396 22,400 1,350 Climbing Jacksonville Center
Mon 09:54:44 AM 31.1453 -81.5914 North 396 456 23,000 300 Climbing Jacksonville Center
Mon 09:55:44 AM 31.2661 -81.5703 North 432 497 23,000  Level Jacksonville Center
Mon 09:56:44 AM 31.3847 -81.5467 10° North 437 503 23,000  Level Jacksonville Center
Mon 09:57:44 AM 31.4975 -81.5306 North 413 475 23,000  Level Jacksonville Center
Mon 09:58:44 AM 31.5975 -81.5144 North 405 466 23,000  Level Jacksonville Center
Mon 10:00:00 AM 31.7031 -81.4685 20° North  Level FlightAware Approximate
Mon 10:00:44 AM 31.8247 -81.4792 20° North 405 466 23,000  Level Jacksonville Center
Mon 10:01:44 AM 31.9517 -81.4578 North 410 472 23,000  Level Jacksonville Center
Mon 10:02:44 AM 32.0664 -81.4389 North 410 472 23,000  Level Jacksonville Center
Mon 10:03:44 AM 32.1706 -81.4225 North 418 481 23,000  Level Jacksonville Center
Mon 10:04:44 AM 32.2997 -81.4006 North 418 481 23,000  Level Jacksonville Center
Mon 10:05:44 AM 32.4142 -81.3792 North 423 487 23,000 -650 Level Jacksonville Center
Mon 10:06:44 AM 32.5206 -81.3650 North 423 487 21,700 -1,900 Descending Jacksonville Center
Mon 10:07:44 AM 32.6497 -81.3431 North 423 487 19,200 -2,083 Descending Jacksonville Center
Mon 10:08:45 AM 32.7539 -81.3242 North 423 487 17,500 -1,950 Descending Jacksonville Center
Mon 10:09:44 AM 32.8642 -81.3047 North 416 479 15,300 -2,218 Descending Jacksonville Center
Mon 10:10:44 AM 32.9664 -81.2858 North 394 453 13,100 -2,150 Descending Jacksonville Center
Mon 10:11:44 AM 33.0664 -81.2714 North 369 425 11,000 -1,100 Descending Jacksonville Center
Mon 10:12:44 AM 33.1581 -81.2550 North 348 400 10,900 -50 Descending Jacksonville Center
Mon 10:13:44 AM 33.2497 -81.2408 North 336 387 10,900  Level Jacksonville Center
Mon 10:14:44 AM 33.3453 -81.2242 North 331 381 10,900 -450 Level Jacksonville Center
Mon 10:15:44 AM 33.4350 -81.2075 North 331 381 10,000 -1,750 Descending Jacksonville Center
Mon 10:16:44 AM 33.5100 -81.2011 North 300 345 7,400 -2,600 Descending Jacksonville Center
Mon 10:17:44 AM 33.5814 -81.2372 337° Northwest 270 311 4,800 -2,250 Descending Jacksonville Center
Mon 10:18:44 AM 33.6569 -81.2606 346° North 258 297 2,900 -1,200 Descending Jacksonville Center
Mon 10:19:44 AM 33.7108 -81.2372 20° North 238 274 2,400 -200 Descending Jacksonville Center
Mon 10:20:44 AM 33.7711 -81.2161 16° North 226 260 2,500 50 Climbing Jacksonville Center
Mon 10:21:44 AM 33.8231 -81.1975 17° North 209 241 2,500  Level Jacksonville Center
Mon 10:23:00 AM 33.9211 -81.1315 North  Level Estimated
Mon 10:30:00 AM 33.9333 -81.1167 North  Level FlightAware Approximate
Mon 10:31:00 AM 33.9388 -81.1195 North  Level Estimated
Mon 10:32:00 AM 33.9333 -81.1167 North  Level FlightAware Approximate

Login

Don't have an account? Register now (free) for customized features, flight alerts, and more!